Time;durP1;ratioP1;P1;durP2;ratioP2;P2;SDS_P1;SDS_P2;PMS_P1;PMS_P2;Temp;Humidity;BMP_temperature;BMP_pressure;BME280_temperature;BME280_humidity;BME280_pressure;Samples;Min_cycle;Max_cycle;Signal;HPM_P1;HPM_P2
2022/10/27 06:33:26;;;;;;;7.53;2.90;;;;;;;;;;5079480;28;20539;-84
2022/10/27 06:35:52;;;;;;;6.67;3.37;;;8.70;99.90;;;;;;5078147;28;20618;-84
2022/10/27 06:38:18;;;;;;;5.10;2.30;;;;;;;;;;5077181;28;20188;-86
2022/10/27 07:20:20;;;;;;;10.03;3.00;;;9.60;99.90;;;;;;5136738;27;20630;-82
2022/10/27 07:22:45;;;;;;;9.13;2.70;;;9.70;99.90;;;;;;5133700;28;20282;-83
2022/10/27 07:25:11;;;;;;;5.47;2.70;;;9.80;99.90;;;;;;5137036;28;20655;-83
2022/10/27 07:27:37;;;;;;;5.20;2.53;;;9.90;99.90;;;;;;5138381;27;20167;-83
2022/10/27 07:30:03;;;;;;;5.83;2.80;;;10.30;99.90;;;;;;5137305;28;20228;-85
2022/10/27 07:32:29;;;;;;;8.17;3.40;;;10.20;99.90;;;;;;5140905;28;20277;-82
2022/10/27 07:34:55;;;;;;;11.03;3.30;;;;;;;;;;5152142;28;20171;-84
2022/10/27 07:37:21;;;;;;;7.87;3.50;;;;;;;;;;5154917;28;20688;-83
2022/10/27 07:39:48;;;;;;;7.10;4.03;;;;;;;;;;5139867;28;20231;-84
2022/10/27 07:42:14;;;;;;;16.53;4.10;;;10.90;99.90;;;;;;5135306;27;20187;-83
2022/10/27 07:44:40;;;;;;;7.90;3.97;;;11.20;99.90;;;;;;5133863;28;20175;-84
2022/10/27 07:47:06;;;;;;;6.50;3.87;;;;;;;;;;5134359;27;20292;-83
2022/10/27 07:49:32;;;;;;;9.83;3.80;;;;;;;;;;5133653;28;20194;-86
2022/10/27 07:51:58;;;;;;;10.30;4.73;;;;;;;;;;5133354;28;20731;-83
2022/10/27 07:54:24;;;;;;;8.67;4.57;;;12.60;99.90;;;;;;5138691;28;20179;-84
2022/10/27 07:56:50;;;;;;;12.07;5.97;;;;;;;;;;5136346;28;20179;-83
2022/10/27 07:59:15;;;;;;;11.30;4.73;;;13.60;99.90;;;;;;5136033;28;20230;-82
2022/10/27 08:01:41;;;;;;;9.63;3.67;;;13.80;99.90;;;;;;5136866;27;20202;-84
2022/10/27 08:04:06;;;;;;;9.40;4.60;;;14.20;99.90;;;;;;5136154;27;20178;-85
2022/10/27 08:06:32;;;;;;;5.27;2.93;;;15.00;99.90;;;;;;5134614;28;20185;-85
2022/10/27 08:08:58;;;;;;;4.67;2.30;;;15.60;99.90;;;;;;5133839;27;20171;-85
2022/10/27 08:11:23;;;;;;;3.60;2.40;;;15.90;99.90;;;;;;5133997;27;20192;-84
2022/10/27 08:13:51;;;;;;;4.03;1.80;;;15.90;99.90;;;;;;5132686;28;20179;-85
2022/10/27 08:16:16;;;;;;;3.73;1.93;;;15.90;99.90;;;;;;5134950;28;20167;-85
2022/10/27 08:18:42;;;;;;;4.83;2.13;;;16.00;99.90;;;;;;5135652;27;20207;-84
2022/10/27 08:21:08;;;;;;;6.37;2.00;;;16.30;99.90;;;;;;5134564;28;20556;-85
2022/10/27 08:23:33;;;;;;;3.27;1.80;;;16.50;99.90;;;;;;5136122;27;20214;-87
2022/10/27 08:25:59;;;;;;;4.37;1.93;;;;;;;;;;5135166;28;20255;-87
2022/10/27 08:28:25;;;;;;;7.73;2.27;;;;;;;;;;5133805;28;20535;-85
2022/10/27 08:30:51;;;;;;;4.23;2.27;;;16.30;99.90;;;;;;5125944;28;20182;-86
2022/10/27 08:33:17;;;;;;;4.87;1.97;;;16.30;99.90;;;;;;5121144;28;20170;-82
2022/10/27 08:35:42;;;;;;;7.80;2.10;;;16.50;99.90;;;;;;5120622;28;20237;-84
2022/10/27 08:38:13;;;;;;;6.30;2.17;;;16.30;99.90;;;;;;5120649;28;20164;-83
2022/10/27 08:40:50;;;;;;;4.03;1.90;;;16.30;99.90;;;;;;5119123;28;20175;-84
2022/10/27 08:43:50;;;;;;;7.50;2.37;;;16.30;99.90;;;;;;5120416;28;20160;-83
2022/10/27 08:46:19;;;;;;;4.37;2.10;;;16.40;99.90;;;;;;5118201;28;20188;-86
2022/10/27 08:48:47;;;;;;;3.90;2.13;;;16.90;99.90;;;;;;5119854;28;20172;-85
2022/10/27 08:51:21;;;;;;;5.37;2.40;;;17.10;99.90;;;;;;5120849;28;20195;-85
2022/10/27 08:53:49;;;;;;;6.27;2.33;;;17.20;99.90;;;;;;5120912;28;20162;-86
2022/10/27 08:56:15;;;;;;;5.27;2.30;;;17.30;99.90;;;;;;5119887;28;20235;-85
2022/10/27 08:58:46;;;;;;;3.30;2.30;;;17.90;99.90;;;;;;5120579;28;20195;-85
2022/10/27 09:01:22;;;;;;;4.33;2.00;;;18.00;99.90;;;;;;5119691;28;20195;-85
2022/10/27 09:04:22;;;;;;;5.77;2.40;;;17.80;99.90;;;;;;5120578;28;20309;-83
2022/10/27 09:07:12;;;;;;;5.57;2.03;;;17.30;99.90;;;;;;5120273;28;20184;-85
2022/10/27 09:09:51;;;;;;;10.70;2.63;;;16.90;99.90;;;;;;5121212;28;20270;-86
2022/10/27 09:12:38;;;;;;;5.93;2.40;;;17.00;99.90;;;;;;5120230;28;20191;-86
2022/10/27 09:15:09;;;;;;;5.03;2.00;;;17.50;99.90;;;;;;5120591;28;20198;-85
2022/10/27 09:17:47;;;;;;;6.07;2.20;;;18.00;99.90;;;;;;5120967;28;20189;-84
2022/10/27 09:20:18;;;;;;;7.30;2.67;;;18.60;99.90;;;;;;5120146;28;20735;-87
2022/10/27 09:22:47;;;;;;;7.83;2.27;;;18.80;99.90;;;;;;5119361;28;20195;-85
2022/10/27 09:25:20;;;;;;;4.40;1.97;;;18.70;99.90;;;;;;5120599;28;20171;-85
2022/10/27 09:27:51;;;;;;;5.93;2.03;;;18.70;99.90;;;;;;5118902;28;20168;-85
2022/10/27 09:30:18;;;;;;;6.90;2.60;;;18.70;99.90;;;;;;5121236;28;20187;-87
2022/10/27 09:32:47;;;;;;;5.37;2.50;;;18.70;99.90;;;;;;5120930;28;20198;-84
2022/10/27 09:35:24;;;;;;;4.80;2.63;;;18.70;99.90;;;;;;5121872;28;20193;-86
2022/10/27 09:37:55;;;;;;;5.77;2.40;;;18.20;99.90;;;;;;5122123;28;20167;-85
2022/10/27 09:40:22;;;;;;;6.37;2.47;;;18.20;99.90;;;;;;5125042;28;20148;-86
2022/10/27 09:42:53;;;;;;;6.63;2.93;;;19.10;99.90;;;;;;5137499;28;20218;-86
2022/10/27 09:45:21;;;;;;;8.40;3.63;;;19.20;99.90;;;;;;5124618;28;20174;-86
2022/10/27 09:47:51;;;;;;;12.60;3.60;;;19.20;99.90;;;;;;5117489;28;20253;-84
2022/10/27 09:50:24;;;;;;;10.43;5.60;;;19.30;99.90;;;;;;5122147;28;20196;-84
2022/10/27 09:52:50;;;;;;;9.27;6.23;;;;;;;;;;5116452;28;20200;-84
2022/10/27 09:55:17;;;;;;;7.00;3.10;;;19.00;99.90;;;;;;5115900;28;20177;-85
2022/10/27 09:57:45;;;;;;;5.73;2.00;;;19.00;99.90;;;;;;5117756;28;20167;-85
2022/10/27 10:00:20;;;;;;;9.57;1.90;;;19.50;99.90;;;;;;5123515;28;20180;-83
2022/10/27 10:03:04;;;;;;;5.37;2.13;;;20.30;99.90;;;;;;5117923;28;20243;-85
2022/10/27 10:05:34;;;;;;;5.87;1.73;;;22.00;99.90;;;;;;5118365;28;20243;-83
2022/10/27 10:08:18;;;;;;;5.40;1.83;;;22.20;99.90;;;;;;5115728;28;20233;-86
2022/10/27 10:10:59;;;;;;;9.03;1.60;;;23.00;99.90;;;;;;5117132;28;20535;-85
2022/10/27 10:13:27;;;;;;;7.40;1.93;;;22.90;99.90;;;;;;5116230;28;20246;-85
2022/10/27 10:16:16;;;;;;;3.80;1.50;;;23.10;99.90;;;;;;5117698;28;20608;-82
2022/10/27 10:18:58;;;;;;;3.17;1.23;;;23.00;99.90;;;;;;5117038;28;20260;-85
2022/10/27 10:21:24;;;;;;;8.40;1.60;;;23.10;99.90;;;;;;5116294;28;20219;-83
2022/10/27 10:23:52;;;;;;;2.93;1.10;;;22.90;99.90;;;;;;5099169;28;20657;-85
2022/10/27 10:26:21;;;;;;;3.13;1.43;;;22.70;99.90;;;;;;5117353;28;20176;-85
2022/10/27 10:28:53;;;;;;;5.30;1.60;;;23.10;99.60;;;;;;5117413;28;20192;-86
2022/10/27 10:31:24;;;;;;;3.77;1.50;;;23.20;99.90;;;;;;5117579;28;20669;-86
2022/10/27 10:33:52;;;;;;;2.90;1.40;;;24.00;99.90;;;;;;5116462;28;20587;-85
2022/10/27 10:36:26;;;;;;;2.20;1.60;;;24.00;99.90;;;;;;5116284;28;20180;-87
2022/10/27 10:38:57;;;;;;;4.07;1.97;;;24.50;99.90;;;;;;5118081;28;20258;-86
2022/10/27 10:41:24;;;;;;;2.53;1.47;;;24.70;96.40;;;;;;5118911;28;20601;-86
2022/10/27 10:44:15;;;;;;;6.83;1.50;;;24.70;96.60;;;;;;5117510;28;20652;-85
2022/10/27 10:46:56;;;;;;;3.43;1.60;;;24.70;98.50;;;;;;5117861;28;20237;-84
2022/10/27 10:49:36;;;;;;;5.40;1.70;;;24.90;95.90;;;;;;5118850;28;20599;-86
2022/10/27 10:52:21;;;;;;;3.60;1.53;;;24.90;95.10;;;;;;5120453;28;20194;-86
2022/10/27 10:54:47;;;;;;;5.13;1.90;;;;;;;;;;5119955;28;20168;-87
2022/10/27 10:57:29;;;;;;;2.97;1.60;;;25.10;95.80;;;;;;5122319;28;20640;-86
2022/10/27 10:59:57;;;;;;;3.23;1.67;;;25.30;94.60;;;;;;5123838;28;20184;-86
2022/10/27 11:02:30;;;;;;;2.47;1.70;;;26.10;97.50;;;;;;5124843;28;20607;-86
2022/10/27 11:05:18;;;;;;;4.07;1.93;;;26.50;93.00;;;;;;5118351;28;20183;-87
2022/10/27 11:07:46;;;;;;;8.57;1.63;;;26.70;93.90;;;;;;5119114;28;20217;-86
2022/10/27 11:10:22;;;;;;;4.83;1.87;;;27.10;92.20;;;;;;5117136;28;20210;-87
2022/10/27 11:13:05;;;;;;;3.93;1.83;;;27.50;93.50;;;;;;5118270;28;20205;-87
2022/10/27 11:15:36;;;;;;;3.03;1.77;;;27.90;90.50;;;;;;5118408;28;20160;-86
2022/10/27 11:18:18;;;;;;;2.47;1.57;;;28.00;86.60;;;;;;5119201;28;20171;-85
2022/10/27 11:20:48;;;;;;;7.93;2.30;;;28.50;84.30;;;;;;5118082;28;20175;-85
2022/10/27 11:23:28;;;;;;;8.47;2.20;;;28.50;83.60;;;;;;5119524;28;20172;-86
2022/10/27 11:25:57;;;;;;;8.27;1.50;;;29.00;81.00;;;;;;5118040;28;20556;-86
2022/10/27 11:28:40;;;;;;;4.57;1.83;;;29.40;83.20;;;;;;5117182;28;20291;-85
2022/10/27 11:31:27;;;;;;;5.03;2.03;;;29.40;74.40;;;;;;5119073;28;20226;-84
2022/10/27 11:34:14;;;;;;;4.93;1.80;;;29.40;73.20;;;;;;5119549;28;20161;-84
2022/10/27 11:36:46;;;;;;;4.30;2.03;;;29.50;85.10;;;;;;5116548;28;20242;-83
2022/10/27 11:39:22;;;;;;;4.27;2.10;;;29.70;72.30;;;;;;5117291;28;20170;-82
2022/10/27 11:41:57;;;;;;;4.37;1.50;;;30.10;74.60;;;;;;5115442;28;20202;-80
2022/10/27 11:44:35;;;;;;;5.53;1.73;;;30.60;79.40;;;;;;5113925;28;20176;-80
2022/10/27 11:47:17;;;;;;;12.43;2.30;;;30.90;72.30;;;;;;5115647;28;20625;-80
2022/10/27 11:49:49;;;;;;;2.93;1.40;;;30.90;69.70;;;;;;5119191;28;20206;-84
2022/10/27 11:52:24;;;;;;;4.17;1.53;;;30.90;70.50;;;;;;5118000;28;20280;-83
2022/10/27 11:54:50;;;;;;;7.70;1.87;;;30.80;70.40;;;;;;5117992;28;20150;-83
2022/10/27 11:57:43;;;;;;;4.53;1.80;;;30.20;68.60;;;;;;5117950;28;20170;-84
2022/10/27 12:00:13;;;;;;;2.87;1.80;;;30.10;68.00;;;;;;5117421;28;20174;-87
2022/10/27 12:02:54;;;;;;;7.03;1.80;;;29.80;70.80;;;;;;5117073;28;20203;-86
2022/10/27 12:05:40;;;;;;;6.40;1.90;;;29.80;77.60;;;;;;5124780;28;20177;-85
2022/10/27 12:08:30;;;;;;;4.87;2.17;;;29.10;74.30;;;;;;5121880;28;20218;-86
2022/10/27 12:11:05;;;;;;;7.00;2.13;;;27.30;82.10;;;;;;5122572;28;20696;-85
2022/10/27 12:13:44;;;;;;;3.27;1.50;;;27.30;80.90;;;;;;5123131;28;20623;-84
2022/10/27 12:16:24;;;;;;;4.70;1.90;;;27.30;84.40;;;;;;5123304;28;20165;-85
2022/10/27 12:19:12;;;;;;;2.40;1.70;;;28.10;81.70;;;;;;5123669;28;20188;-84
2022/10/27 12:21:47;;;;;;;5.70;1.60;;;29.20;74.10;;;;;;5106213;28;20213;-84
2022/10/27 12:24:32;;;;;;;3.50;1.57;;;29.50;75.30;;;;;;5122234;28;20193;-83
2022/10/27 12:27:06;;;;;;;7.07;1.80;;;30.00;75.50;;;;;;5121628;28;20199;-84
2022/10/27 12:29:38;;;;;;;5.67;1.67;;;30.20;72.20;;;;;;5122145;28;20293;-83
2022/10/27 12:32:13;;;;;;;2.67;1.60;;;30.60;73.50;;;;;;5122081;28;20672;-85
2022/10/27 12:34:47;;;;;;;6.60;1.93;;;30.80;68.40;;;;;;5121905;28;20205;-84
2022/10/27 12:37:27;;;;;;;6.37;1.87;;;30.40;72.20;;;;;;5123714;28;20156;-84
2022/10/27 12:40:03;;;;;;;6.33;1.70;;;30.00;70.90;;;;;;5122006;28;20599;-84
2022/10/27 12:42:55;;;;;;;4.17;1.57;;;29.70;71.20;;;;;;5124820;28;20191;-84
2022/10/27 12:45:45;;;;;;;4.03;2.07;;;30.00;70.00;;;;;;5121668;28;20163;-84
2022/10/27 12:48:15;;;;;;;6.53;2.13;;;30.00;74.00;;;;;;5120491;28;20175;-85
2022/10/27 12:50:56;;;;;;;3.93;2.33;;;30.50;70.00;;;;;;5122154;28;20162;-85
2022/10/27 12:53:43;;;;;;;6.50;1.83;;;30.40;71.30;;;;;;5120728;28;20179;-84
2022/10/27 12:56:21;;;;;;;3.23;1.80;;;30.90;71.20;;;;;;5122351;28;20219;-84
2022/10/27 12:59:08;;;;;;;5.00;1.70;;;31.30;69.90;;;;;;5120220;28;20171;-85
2022/10/27 13:02:00;;;;;;;6.47;1.80;;;31.40;67.10;;;;;;5120685;28;20210;-84
2022/10/27 13:04:28;;;;;;;5.53;2.00;;;31.40;71.10;;;;;;5121794;28;20570;-83
2022/10/27 13:07:20;;;;;;;3.53;2.10;;;31.50;68.90;;;;;;5120970;28;20577;-84
2022/10/27 13:10:20;;;;;;;4.57;1.73;;;31.80;66.20;;;;;;5122016;28;20238;-85
2022/10/27 13:13:10;;;;;;;6.43;1.80;;;31.50;69.30;;;;;;5121411;28;20246;-85
2022/10/27 13:16:21;;;;;;;4.67;1.80;;;29.80;71.40;;;;;;5121565;28;20171;-86
2022/10/27 13:19:12;;;;;;;5.40;1.67;;;28.00;74.80;;;;;;5107793;28;20210;-86
2022/10/27 13:21:49;;;;;;;8.43;1.60;;;26.60;78.20;;;;;;5118956;28;20308;-87
2022/10/27 13:24:26;;;;;;;2.40;1.20;;;26.40;81.30;;;;;;5120866;28;20172;-85
2022/10/27 13:27:18;;;;;;;4.97;1.70;;;27.70;78.80;;;;;;5120492;28;20265;-84
2022/10/27 13:29:55;;;;;;;3.80;1.67;;;29.00;77.90;;;;;;5121501;28;20656;-85
2022/10/27 13:32:27;;;;;;;5.30;1.60;;;30.10;71.40;;;;;;5117143;28;20215;-84
2022/10/27 13:34:58;;;;;;;7.53;1.60;;;30.40;70.50;;;;;;5117636;28;20163;-83
2022/10/27 13:37:44;;;;;;;4.00;1.43;;;30.40;70.90;;;;;;5117186;28;20176;-86
2022/10/27 13:40:22;;;;;;;8.67;1.73;;;30.60;74.80;;;;;;5117594;28;20172;-86
2022/10/27 13:42:56;;;;;;;7.27;1.90;;;30.70;70.30;;;;;;5116881;28;20252;-85
2022/10/27 13:45:34;;;;;;;4.93;1.50;;;30.40;71.60;;;;;;5117177;28;20643;-84
2022/10/27 13:48:06;;;;;;;5.70;1.83;;;30.60;70.00;;;;;;5117013;28;20225;-86
2022/10/27 13:50:40;;;;;;;9.80;2.03;;;28.20;73.10;;;;;;5118479;28;20250;-84
2022/10/27 13:53:15;;;;;;;5.87;1.60;;;28.10;73.80;;;;;;5117463;28;20177;-82
2022/10/27 13:55:47;;;;;;;8.30;2.07;;;26.50;79.60;;;;;;5117032;28;20196;-85
2022/10/27 13:58:19;;;;;;;8.20;2.10;;;25.20;82.50;;;;;;5116619;28;20180;-84
2022/10/27 14:01:06;;;;;;;6.43;2.20;;;23.50;86.60;;;;;;5116524;28;20176;-85
2022/10/27 14:03:56;;;;;;;7.10;1.80;;;23.40;87.80;;;;;;5117783;28;20164;-85
2022/10/27 14:06:34;;;;;;;10.33;1.97;;;22.90;91.50;;;;;;5117974;28;20240;-83
2022/10/27 14:09:19;;;;;;;4.00;1.70;;;22.40;91.40;;;;;;5122119;28;20198;-85
2022/10/27 14:11:46;;;;;;;6.27;1.87;;;22.10;93.70;;;;;;5118528;28;20259;-86
2022/10/27 14:14:29;;;;;;;6.43;2.00;;;21.90;93.60;;;;;;5116852;28;20216;-85
2022/10/27 14:16:58;;;;;;;12.00;2.17;;;21.60;94.20;;;;;;5116719;28;20201;-84
2022/10/27 14:19:28;;;;;;;6.13;1.60;;;21.40;96.10;;;;;;5115910;28;20278;-85
2022/10/27 14:21:55;;;;;;;5.53;1.93;;;21.30;95.90;;;;;;5117346;28;20212;-84
2022/10/27 14:24:33;;;;;;;4.60;2.00;;;21.20;96.90;;;;;;5115779;28;20224;-85
2022/10/27 14:27:03;;;;;;;6.80;2.23;;;21.10;97.30;;;;;;5117093;28;20157;-83
2022/10/27 14:29:30;;;;;;;6.33;1.90;;;21.00;98.60;;;;;;5116843;28;20290;-86
2022/10/27 14:32:18;;;;;;;7.27;1.90;;;21.00;98.70;;;;;;5115757;28;20251;-83
2022/10/27 14:34:44;;;;;;;5.57;1.90;;;20.90;99.20;;;;;;5115582;28;20627;-84
2022/10/27 14:37:26;;;;;;;5.03;1.90;;;20.80;99.90;;;;;;5115769;28;20204;-82
2022/10/27 14:39:52;;;;;;;4.57;2.00;;;20.80;99.90;;;;;;5115445;28;20272;-85
2022/10/27 14:42:30;;;;;;;7.90;2.37;;;20.70;99.90;;;;;;5115801;28;20275;-86
2022/10/27 14:45:30;;;;;;;8.97;1.93;;;20.60;99.90;;;;;;5115806;28;20176;-84
2022/10/27 14:48:03;;;;;;;5.37;1.90;;;20.60;99.90;;;;;;5112892;28;20180;-83
2022/10/27 14:50:33;;;;;;;5.57;2.20;;;20.50;99.90;;;;;;5114840;28;20191;-83
2022/10/27 14:53:00;;;;;;;11.40;2.50;;;20.40;99.90;;;;;;5115991;28;20198;-83
2022/10/27 14:55:36;;;;;;;7.00;2.53;;;20.30;99.90;;;;;;5115295;28;20511;-85
2022/10/27 14:58:03;;;;;;;5.33;1.90;;;20.20;99.90;;;;;;5114913;28;20182;-86
2022/10/27 15:00:36;;;;;;;8.87;2.40;;;20.10;99.90;;;;;;5115290;28;20599;-85
2022/10/27 15:03:07;;;;;;;10.03;2.70;;;20.00;99.90;;;;;;5115457;28;20166;-86
2022/10/27 15:05:45;;;;;;;6.90;2.17;;;20.00;99.90;;;;;;5116368;28;20535;-85
2022/10/27 15:08:20;;;;;;;16.90;2.57;;;19.80;99.90;;;;;;5114950;28;20541;-84
2022/10/27 15:10:48;;;;;;;18.93;2.77;;;19.50;99.90;;;;;;5116712;28;20154;-84
2022/10/27 15:13:21;;;;;;;15.40;3.13;;;19.50;99.90;;;;;;5116479;28;20252;-86
2022/10/27 15:15:48;;;;;;;10.10;2.87;;;19.40;99.90;;;;;;5115661;28;20169;-85
2022/10/27 15:18:32;;;;;;;14.67;3.50;;;19.30;99.90;;;;;;5117300;28;20271;-84
2022/10/27 15:20:59;;;;;;;11.43;2.80;;;19.00;99.90;;;;;;5116839;28;20193;-86
2022/10/27 15:23:25;;;;;;;14.17;3.30;;;19.00;99.90;;;;;;5116697;28;20181;-86
2022/10/27 15:25:52;;;;;;;14.47;3.00;;;18.90;99.90;;;;;;5118145;28;20182;-83
2022/10/27 15:28:30;;;;;;;24.70;4.80;;;18.80;99.90;;;;;;5116358;28;20239;-85
2022/10/27 15:30:57;;;;;;;14.70;3.30;;;18.60;99.90;;;;;;5118431;28;20234;-83
2022/10/27 15:33:26;;;;;;;19.10;3.53;;;18.60;99.90;;;;;;5117283;28;20204;-85
2022/10/27 15:35:56;;;;;;;20.93;3.53;;;18.50;99.90;;;;;;5117590;28;20178;-83
2022/10/27 15:38:29;;;;;;;16.53;2.80;;;18.40;99.90;;;;;;5116653;28;20184;-84
2022/10/27 15:41:10;;;;;;;16.53;3.37;;;18.20;99.90;;;;;;5118149;28;20202;-86
2022/10/27 15:43:36;;;;;;;22.77;4.20;;;18.20;99.90;;;;;;5120147;28;20588;-84
2022/10/27 15:46:16;;;;;;;30.40;3.93;;;18.10;99.90;;;;;;5121088;28;20168;-84
2022/10/27 15:48:43;;;;;;;17.90;3.43;;;18.00;99.90;;;;;;5120991;28;20624;-84
2022/10/27 15:51:16;;;;;;;26.27;3.43;;;17.70;99.90;;;;;;5120299;28;20520;-82
2022/10/27 15:53:53;;;;;;;22.27;3.47;;;17.70;99.90;;;;;;5120333;28;20172;-84
2022/10/27 15:56:31;;;;;;;27.03;3.63;;;17.60;99.90;;;;;;5120424;28;20639;-86
2022/10/27 15:59:18;;;;;;;14.37;4.90;;;17.40;99.90;;;;;;5120126;28;20181;-84
2022/10/27 16:01:46;;;;;;;27.47;7.17;;;17.40;99.90;;;;;;5119944;28;20286;-84
2022/10/27 16:04:36;;;;;;;29.17;8.83;;;17.30;99.90;;;;;;5120252;28;20675;-84
2022/10/27 16:07:14;;;;;;;31.40;8.70;;;17.20;99.90;;;;;;5120344;28;20160;-83
2022/10/27 16:09:42;;;;;;;30.70;11.03;;;17.10;99.90;;;;;;5124862;28;20678;-84
2022/10/27 16:12:39;;;;;;;32.07;10.57;;;16.90;99.90;;;;;;5121144;28;20196;-84
2022/10/27 16:15:15;;;;;;;33.63;11.07;;;16.80;99.90;;;;;;5120610;28;20222;-84
2022/10/27 16:17:43;;;;;;;16.40;8.87;;;16.70;99.90;;;;;;5119706;28;20171;-84
2022/10/27 16:20:17;;;;;;;23.60;10.10;;;16.50;99.90;;;;;;5121566;28;20186;-83
2022/10/27 16:22:42;;;;;;;16.90;8.00;;;16.50;99.90;;;;;;5121324;28;20561;-84
2022/10/27 16:25:16;;;;;;;14.93;8.40;;;16.30;99.90;;;;;;5119857;28;20175;-84
2022/10/27 16:27:42;;;;;;;19.37;8.47;;;16.30;99.90;;;;;;5121238;28;20168;-84
2022/10/27 16:30:14;;;;;;;15.17;7.77;;;16.20;99.90;;;;;;5120960;28;20193;-85
2022/10/27 16:32:41;;;;;;;13.10;7.27;;;16.10;99.90;;;;;;5119403;28;20192;-84
2022/10/27 16:35:15;;;;;;;14.07;6.67;;;16.10;99.90;;;;;;5121045;28;20171;-83
2022/10/27 16:37:41;;;;;;;15.93;6.83;;;16.00;99.90;;;;;;5120901;28;20149;-84
2022/10/27 16:40:14;;;;;;;14.07;6.77;;;15.90;99.90;;;;;;5119743;28;20229;-84
2022/10/27 16:42:51;;;;;;;11.90;7.20;;;15.80;99.90;;;;;;5119204;28;20287;-86
2022/10/27 16:45:19;;;;;;;16.20;6.97;;;15.70;99.90;;;;;;5120969;28;20226;-85
2022/10/27 16:47:47;;;;;;;15.87;8.17;;;15.70;99.90;;;;;;5121128;28;20679;-83
2022/10/27 16:50:13;;;;;;;20.50;9.27;;;15.70;99.90;;;;;;5120430;28;20208;-84
2022/10/27 16:52:39;;;;;;;21.33;9.47;;;15.60;99.90;;;;;;5120512;28;20187;-85
2022/10/27 16:55:08;;;;;;;18.83;9.77;;;15.40;99.90;;;;;;5119923;28;20191;-84
2022/10/27 16:57:44;;;;;;;13.83;9.07;;;15.40;99.90;;;;;;5119692;28;20175;-84
2022/10/27 17:00:11;;;;;;;16.37;9.33;;;15.30;99.90;;;;;;5120608;28;20198;-85
2022/10/27 17:02:37;;;;;;;16.13;8.40;;;15.40;99.90;;;;;;5121013;28;20187;-84
2022/10/27 17:05:05;;;;;;;14.27;8.83;;;15.20;99.90;;;;;;5121056;28;20175;-84
2022/10/27 17:07:30;;;;;;;14.43;7.73;;;15.20;99.90;;;;;;5120298;28;20226;-85
2022/10/27 17:09:56;;;;;;;14.00;8.27;;;;;;;;;;5121528;28;20191;-85
2022/10/27 17:12:28;;;;;;;16.27;7.70;;;;;;;;;;5120654;28;20207;-83
2022/10/27 17:14:54;;;;;;;12.43;7.87;;;15.00;99.90;;;;;;5119203;28;20171;-85
2022/10/27 17:17:20;;;;;;;20.97;9.07;;;;;;;;;;5120224;28;20219;-85
2022/10/27 17:19:46;;;;;;;14.47;8.23;;;;;;;;;;5119285;28;20207;-85
2022/10/27 17:22:13;;;;;;;17.37;9.20;;;;;;;;;;5119916;28;20545;-84
2022/10/27 17:24:39;;;;;;;17.33;10.80;;;;;;;;;;5122185;28;20195;-85
2022/10/27 17:27:05;;;;;;;15.30;8.60;;;14.80;99.90;;;;;;5123520;28;20221;-85
2022/10/27 17:29:31;;;;;;;18.47;8.50;;;14.80;99.90;;;;;;5125794;28;20203;-84
2022/10/27 17:31:57;;;;;;;15.80;7.93;;;;;;;;;;5127844;28;20223;-85
2022/10/27 17:34:22;;;;;;;16.00;8.17;;;14.80;99.90;;;;;;5118964;28;20187;-83
2022/10/27 17:36:48;;;;;;;25.83;14.57;;;;;;;;;;5120170;28;20629;-84
2022/10/27 17:39:14;;;;;;;34.23;20.47;;;15.00;99.90;;;;;;5121467;28;20179;-84
2022/10/27 17:41:40;;;;;;;25.63;13.50;;;;;;;;;;5121772;28;20200;-84
2022/10/27 17:44:06;;;;;;;33.93;17.30;;;14.80;99.90;;;;;;5122319;28;20241;-83
2022/10/27 17:46:32;;;;;;;30.77;17.47;;;;;;;;;;5123200;28;20179;-83
2022/10/27 17:48:58;;;;;;;35.70;22.17;;;;;;;;;;5123716;28;20657;-83
2022/10/27 17:51:28;;;;;;;54.37;31.80;;;14.60;99.90;;;;;;5122125;28;20191;-84
2022/10/27 17:53:55;;;;;;;49.97;31.30;;;14.50;99.90;;;;;;5120615;28;20163;-84
2022/10/27 17:56:23;;;;;;;40.53;25.27;;;14.60;99.90;;;;;;5121011;28;20172;-83
2022/10/27 17:58:49;;;;;;;45.13;25.70;;;;;;;;;;5121245;28;20229;-83
2022/10/27 18:01:27;;;;;;;32.87;21.03;;;14.70;99.90;;;;;;5119973;28;20688;-85
2022/10/27 18:03:54;;;;;;;33.13;23.03;;;14.50;99.90;;;;;;5118704;28;20180;-84
2022/10/27 18:06:25;;;;;;;44.27;31.73;;;14.60;99.90;;;;;;5121385;28;20202;-85
2022/10/27 18:08:54;;;;;;;37.27;25.50;;;14.80;99.90;;;;;;5119439;28;20212;-84
2022/10/27 18:11:22;;;;;;;28.47;19.83;;;14.50;99.90;;;;;;5124131;28;20200;-84
2022/10/27 18:13:50;;;;;;;30.20;19.07;;;14.40;99.90;;;;;;5120721;28;20200;-84
2022/10/27 18:16:23;;;;;;;14.00;8.00;;;14.40;99.90;;;;;;5120799;28;20176;-83
2022/10/27 18:19:03;;;;;;;16.20;6.63;;;14.30;99.90;;;;;;5119087;28;20284;-85
2022/10/27 18:21:34;;;;;;;14.83;5.20;;;14.20;99.90;;;;;;5120590;28;20200;-83
2022/10/27 18:24:01;;;;;;;7.70;5.20;;;14.40;99.90;;;;;;5120384;28;20181;-83
2022/10/27 18:26:29;;;;;;;10.97;5.23;;;14.30;99.90;;;;;;5120666;28;20175;-84
2022/10/27 18:28:55;;;;;;;9.97;4.10;;;;;;;;;;5121323;28;20204;-83
2022/10/27 18:31:23;;;;;;;9.10;4.30;;;14.40;99.90;;;;;;5121115;28;20187;-84
2022/10/27 18:33:49;;;;;;;5.57;3.60;;;;;;;;;;5119317;28;20632;-84
2022/10/27 18:36:18;;;;;;;8.03;3.13;;;14.50;99.90;;;;;;5120817;28;20229;-87
2022/10/27 18:38:44;;;;;;;8.60;3.20;;;;;;;;;;5120569;28;20692;-84
2022/10/27 18:41:15;;;;;;;7.20;3.30;;;14.40;99.90;;;;;;5118946;28;20244;-83
2022/10/27 18:43:44;;;;;;;10.20;3.20;;;;;;;;;;5119649;28;20226;-86
2022/10/27 18:46:12;;;;;;;12.37;3.43;;;14.20;99.90;;;;;;5120262;28;20222;-85
2022/10/27 18:48:38;;;;;;;8.50;3.43;;;;;;;;;;5119405;28;20198;-85
2022/10/27 18:51:06;;;;;;;6.03;3.53;;;13.90;99.90;;;;;;5121259;28;20187;-85
2022/10/27 18:53:33;;;;;;;6.50;2.87;;;13.90;99.90;;;;;;5122506;28;20172;-86
2022/10/27 18:56:01;;;;;;;3.60;2.33;;;14.10;99.90;;;;;;5120247;28;20231;-84
2022/10/27 18:58:27;;;;;;;6.43;2.63;;;;;;;;;;5119669;28;20178;-85
2022/10/27 19:00:53;;;;;;;5.50;2.20;;;;;;;;;;5124405;28;20235;-85
2022/10/27 19:03:19;;;;;;;3.77;2.53;;;14.30;99.90;;;;;;5134506;28;20171;-84
2022/10/27 19:05:45;;;;;;;5.07;2.53;;;;;;;;;;5127702;28;20172;-84
2022/10/27 19:08:13;;;;;;;3.30;2.50;;;;;;;;;;5120171;28;20203;-84
2022/10/27 19:10:39;;;;;;;6.57;2.80;;;;;;;;;;5118521;28;20203;-85
2022/10/27 19:13:05;;;;;;;4.83;2.93;;;;;;;;;;5117987;28;20195;-84
2022/10/27 19:15:31;;;;;;;5.63;2.40;;;14.30;99.90;;;;;;5118655;28;20167;-85
2022/10/27 19:17:59;;;;;;;5.90;3.33;;;14.40;99.90;;;;;;5119080;28;20194;-84
2022/10/27 19:20:26;;;;;;;5.97;3.63;;;;;;;;;;5119696;28;20175;-84
2022/10/27 19:22:52;;;;;;;7.53;3.67;;;14.20;99.90;;;;;;5120845;28;20689;-84
2022/10/27 19:25:18;;;;;;;9.47;3.77;;;;;;;;;;5119620;28;20183;-84
2022/10/27 19:27:44;;;;;;;8.40;3.80;;;;;;;;;;5119933;28;20209;-84
2022/10/27 19:30:11;;;;;;;11.33;4.23;;;;;;;;;;5120788;28;20236;-84
2022/10/27 19:32:36;;;;;;;7.57;4.17;;;14.00;99.90;;;;;;5119595;28;20187;-84
2022/10/27 19:35:03;;;;;;;10.80;4.80;;;13.70;99.90;;;;;;5118042;28;20186;-84
2022/10/27 19:37:29;;;;;;;9.77;4.53;;;14.10;99.90;;;;;;5119084;28;20657;-84
2022/10/27 19:39:55;;;;;;;11.53;5.93;;;;;;;;;;5118456;28;20262;-85
2022/10/27 19:42:21;;;;;;;8.80;5.10;;;;;;;;;;5117414;28;20564;-85
2022/10/27 19:44:49;;;;;;;14.70;6.37;;;13.90;99.90;;;;;;5119458;28;20179;-85
2022/10/27 19:47:16;;;;;;;8.83;4.93;;;13.70;99.90;;;;;;5118820;28;20199;-84
2022/10/27 19:49:42;;;;;;;11.57;5.40;;;;;;;;;;5118617;28;20199;-82
2022/10/27 19:52:07;;;;;;;10.63;5.30;;;13.70;99.90;;;;;;5116810;28;20539;-85
2022/10/27 19:54:33;;;;;;;9.23;4.53;;;;;;;;;;5118410;28;20616;-84
2022/10/27 19:56:59;;;;;;;11.13;5.70;;;;;;;;;;5118073;28;20190;-86
2022/10/27 19:59:25;;;;;;;11.40;5.83;;;;;;;;;;5117526;28;20637;-85
2022/10/27 20:01:52;;;;;;;7.00;3.87;;;13.60;99.90;;;;;;5118172;28;20202;-84
2022/10/27 20:04:20;;;;;;;12.93;6.73;;;13.60;99.90;;;;;;5118119;28;20176;-84
2022/10/27 20:06:46;;;;;;;14.10;5.80;;;;;;;;;;5122461;28;20155;-85
2022/10/27 20:09:17;;;;;;;17.60;9.33;;;13.70;99.90;;;;;;5118235;28;20195;-85
2022/10/27 20:11:43;;;;;;;16.87;7.80;;;13.50;99.90;;;;;;5118922;28;20282;-86
2022/10/27 20:14:09;;;;;;;10.30;5.80;;;13.50;99.90;;;;;;5120107;28;20176;-85
2022/10/27 20:16:38;;;;;;;12.60;5.97;;;13.60;99.90;;;;;;5119305;28;20229;-84
2022/10/27 20:19:06;;;;;;;11.10;6.13;;;13.60;99.90;;;;;;5117910;28;20199;-85
2022/10/27 20:21:33;;;;;;;8.80;4.90;;;;;;;;;;5119805;28;20726;-86
2022/10/27 20:24:00;;;;;;;7.23;4.10;;;13.50;99.90;;;;;;5120664;28;20200;-83
2022/10/27 20:26:26;;;;;;;9.43;4.30;;;;;;;;;;5119878;28;20183;-83
2022/10/27 20:28:51;;;;;;;5.87;3.87;;;13.70;99.90;;;;;;5125977;28;20567;-82
2022/10/27 20:31:17;;;;;;;9.60;4.03;;;;;;;;;;5123698;28;20187;-82
2022/10/27 20:33:43;;;;;;;9.43;4.63;;;;;;;;;;5122694;28;20210;-83
2022/10/27 20:36:14;;;;;;;7.57;4.53;;;13.40;99.90;;;;;;5122180;28;20175;-85
2022/10/27 20:38:39;;;;;;;7.70;4.30;;;13.50;99.90;;;;;;5122741;28;20156;-85